Flight Track Log - Related Links

Times and Time Zones

All times are in EDT time to prevent confusion due to time zone crossing. See the UAL149 flight status page for this flight to view local times or setup timezone preferences in your user account.

Time Position Orientation Groundspeed Altitude Reporting Facility
EDT Latitude Longitude Course Direction KTS MPH feet Rate Location/Type
Thu 05:13:21 PM 40.6456 -74.1872 270° West 192 221 1,600  Level New York Center
Thu 05:14:22 PM 40.6125 -74.2511 236° Southwest 252 290 3,800 2,780 Climbing New York Center
Thu 05:15:00 PM 40.6834 -74.5963 270° West  Level FlightAware Approximate
Thu 05:15:24 PM 40.6000 -74.3667 262° West 295 339 7,300  Level New York TRACON
Thu 05:16:00 PM 40.6833 -74.7394 270° West  Level FlightAware Approximate
Thu 05:16:24 PM 40.6000 -74.4833 270° West 305 351 10,500  Level New York TRACON
Thu 05:17:00 PM 40.6834 -74.8827 270° West  Level FlightAware Approximate
Thu 05:17:24 PM 40.6167 -74.5833 282° West 342 394 11,900  Level New York TRACON
Thu 05:18:00 PM 40.6833 -75.0258 270° West  Level FlightAware Approximate
Thu 05:18:21 PM 40.6672 -74.6917 302° West 384 442 12,700  Level New York Center
Thu 05:19:22 PM 40.6731 -74.8342 273° West 394 453 16,200 2,098 Climbing New York Center
Thu 05:20:24 PM 40.6783 -74.9769 273° West 394 453 17,000 958 Climbing New York Center
Thu 05:21:21 PM 40.6675 -75.1075 264° West 400 460 18,100 1,729 Climbing New York Center
Thu 05:22:22 PM 40.6058 -75.2514 241° Southwest 400 460 20,400 2,033 Climbing New York Center
Thu 05:23:22 PM 40.5464 -75.3839 239° Southwest 406 467 22,200 1,664 Climbing New York Center
Thu 05:24:21 PM 40.4783 -75.5239 237° Southwest 438 504 23,700 1,664 Climbing New York Center
Thu 05:25:21 PM 40.4142 -75.6694 240° Southwest 457 526 25,500 1,623 Climbing New York Center
Thu 05:26:23 PM 40.3456 -75.8144 238° Southwest 462 532 27,000 1,650 Climbing New York Center
Thu 05:27:21 PM 40.2725 -75.9614 237° Southwest 469 540 28,800 1,916 Climbing New York Center
Thu 05:28:22 PM 40.2056 -76.1061 239° Southwest 474 545 30,800 1,623 Climbing New York Center
Thu 05:29:23 PM 40.1519 -76.2294 240° Southwest 467 537 32,100 1,240 Climbing New York Center
Thu 05:30:23 PM 40.0806 -76.3706 237° Southwest 462 532 33,300 1,190 Climbing New York Center
Thu 05:31:24 PM 40.0153 -76.5144 239° Southwest 457 526 34,500 1,045 Climbing New York Center
Thu 05:32:58 PM 39.9039 -76.7517 239° Southwest 456 525 36,000 581 Climbing Washington Center
Thu 05:33:59 PM 39.8444 -76.8750 238° Southwest 450 518 36,000  Level Washington Center
Thu 05:34:59 PM 39.7803 -77.0144 239° Southwest 450 518 36,000  Level Washington Center
Thu 05:36:00 PM 39.7161 -77.1508 239° Southwest 450 518 36,000  Level Washington Center
Thu 05:37:00 PM 39.6539 -77.2842 239° Southwest 450 518 36,000  Level Washington Center
Thu 05:37:58 PM 39.5894 -77.4228 239° Southwest 450 518 36,000  Level Washington Center
Thu 05:38:59 PM 39.5225 -77.5581 237° Southwest 450 518 36,000  Level Washington Center
Thu 05:40:00 PM 39.4600 -77.6936 239° Southwest 450 518 36,000  Level Washington Center
Thu 05:41:00 PM 39.3883 -77.8419 238° Southwest 450 518 36,000  Level Washington Center
Thu 05:41:58 PM 39.3336 -77.9825 243° Southwest 450 518 36,000  Level Washington Center
Thu 05:42:58 PM 39.2767 -78.1225 242° Southwest 445 512 36,000  Level Washington Center
Thu 05:43:59 PM 39.2214 -78.2628 243° Southwest 445 512 36,000  Level Washington Center
Thu 05:44:59 PM 39.1661 -78.4025 243° Southwest 445 512 36,000  Level Washington Center
Thu 05:46:00 PM 39.1086 -78.5447 243° Southwest 445 512 36,000  Level Washington Center
Thu 05:46:58 PM 39.0528 -78.6869 243° Southwest 445 512 36,000  Level Washington Center
Thu 05:47:59 PM 38.9950 -78.8261 242° Southwest 445 512 36,000  Level Washington Center
Thu 05:49:00 PM 38.9369 -78.9650 242° Southwest 445 512 36,000  Level Washington Center
Thu 05:49:58 PM 38.8808 -79.1036 243° Southwest 445 512 36,000  Level Washington Center
Thu 05:50:59 PM 38.8328 -79.2506 247° West 445 512 36,000  Level Washington Center
Thu 05:51:59 PM 38.8050 -79.4039 257° West 445 512 36,000  Level Washington Center
Thu 05:52:58 PM 38.7844 -79.5278 258° West 440 506 36,000  Level Washington Center
Thu 05:53:58 PM 38.7372 -79.6931 250° West 445 512 36,000  Level Washington Center
Thu 05:54:59 PM 38.6858 -79.8497 247° West 445 512 36,000  Level Washington Center
Thu 05:56:00 PM 38.6369 -79.9933 246° West 445 512 36,000  Level Washington Center
Thu 05:57:00 PM 38.6000 -80.1425 252° West 445 512 36,000  Level Washington Center
Thu 05:59:08 PM 38.5342 -80.4433 254° West 432 497 36,000  Level Indianapolis Center
Thu 06:00:10 PM 38.4994 -80.6069 255° West 433 498 36,000  Level Indianapolis Center
Thu 06:01:12 PM 38.4664 -80.7531 254° West 430 495 36,000  Level Indianapolis Center
Thu 06:02:14 PM 38.4325 -80.9014 254° West 433 498 36,000  Level Indianapolis Center
Thu 06:03:16 PM 38.3997 -81.0492 254° West 432 497 36,000  Level Indianapolis Center
Thu 06:04:18 PM 38.3661 -81.1972 254° West 433 498 36,000  Level Indianapolis Center
Thu 06:05:20 PM 38.3325 -81.3450 254° West 431 496 36,000  Level Indianapolis Center
Thu 06:06:22 PM 38.2975 -81.4953 254° West 437 503 36,000 -48 Level Indianapolis Center
Thu 06:07:24 PM 38.2639 -81.6467 254° West 440 506 35,900 -629 Descending Indianapolis Center
Thu 06:08:26 PM 38.2225 -81.8247 254° West 435 501 34,700 -1,016 Descending Indianapolis Center
Thu 06:09:28 PM 38.1878 -81.9767 254° West 443 510 33,800 -919 Descending Indianapolis Center
Thu 06:10:30 PM 38.1517 -82.1275 253° West 446 513 32,800 -871 Descending Indianapolis Center
Thu 06:11:32 PM 38.1161 -82.2800 254° West 451 519 32,000 -387 Descending Indianapolis Center
Thu 06:12:34 PM 38.0783 -82.4436 254° West 446 513 32,000  Level Indianapolis Center
Thu 06:13:36 PM 38.0406 -82.5931 252° West 446 513 32,000  Level Indianapolis Center
Thu 06:14:38 PM 38.0053 -82.7436 253° West 446 513 32,000  Level Indianapolis Center
Thu 06:15:40 PM 37.9697 -82.8953 253° West 449 517 32,000  Level Indianapolis Center
Thu 06:16:44 PM 37.9264 -83.0708 253° West 450 518 32,000  Level Indianapolis Center
Thu 06:17:44 PM 37.8892 -83.2197 252° West 447 514 32,000  Level Indianapolis Center
Thu 06:18:46 PM 37.8528 -83.3697 253° West 446 513 32,000  Level Indianapolis Center
Thu 06:19:48 PM 37.8147 -83.5186 252° West 448 516 32,000 -290 Level Indianapolis Center
Thu 06:20:50 PM 37.7775 -83.6697 253° West 450 518 31,400 -1,440 Descending Indianapolis Center
Thu 06:21:53 PM 37.7333 -83.8414 252° West 444 511 29,000 -2,208 Descending Indianapolis Center
Thu 06:22:55 PM 37.6983 -83.9831 253° West 430 495 26,800 -2,129 Descending Indianapolis Center
Thu 06:23:57 PM 37.6639 -84.1181 252° West 414 476 24,600 -1,887 Descending Indianapolis Center
Thu 06:24:59 PM 37.6269 -84.2486 250° West 400 460 22,900 -2,903 Descending Indianapolis Center
Thu 06:26:01 PM 37.6325 -84.3806 273° West 383 441 18,600 -3,194 Descending Indianapolis Center
Thu 06:27:03 PM 37.6378 -84.5392 272° West 390 449 16,300 -2,081 Descending Indianapolis Center
Thu 06:28:05 PM 37.6417 -84.6664 272° West 368 423 14,300 -1,935 Descending Indianapolis Center
Thu 06:29:07 PM 37.6467 -84.7914 273° West 359 413 12,300 -1,500 Descending Indianapolis Center
Thu 06:30:09 PM 37.6531 -84.9086 274° West 339 390 11,200 -726 Descending Indianapolis Center
Thu 06:31:11 PM 37.6903 -85.0019 297° West 320 368 10,800 -581 Descending Indianapolis Center
Thu 06:32:13 PM 37.7542 -85.0939 311° West 303 349 10,000 -387 Descending Indianapolis Center
Thu 06:33:15 PM 37.8108 -85.1706 313° West 298 343 10,000  Level Indianapolis Center
Thu 06:34:17 PM 37.8700 -85.2528 312° West 300 345 10,000 -532 Level Indianapolis Center
Thu 06:35:19 PM 37.9256 -85.3311 312° West 299 344 8,900 -1,113 Descending Indianapolis Center
Thu 06:36:21 PM 37.9806 -85.4075 312° West 295 339 7,700 -1,306 Descending Indianapolis Center
Thu 06:37:23 PM 38.0336 -85.4808 313° West 285 328 6,200 -823 Descending Indianapolis Center
Thu 06:38:25 PM 38.0875 -85.5542 313° West 284 327 6,000 -97 Descending Indianapolis Center
Thu 06:39:27 PM 38.1481 -85.6086 325° Northwest 282 325 6,000 -145 Level Indianapolis Center
Thu 06:40:29 PM 38.2192 -85.6372 342° North 273 314 5,700 -677 Descending Indianapolis Center
Thu 06:41:31 PM 38.2972 -85.6667 344° North 257 296 4,600 -774 Descending Indianapolis Center
Thu 06:42:33 PM 38.3483 -85.7086 327° Northwest 245 282 4,100 -484 Descending Indianapolis Center

Login

Don't have an account? Register now (free) for customized features, flight alerts, and more!